Time;durP1;ratioP1;P1;durP2;ratioP2;P2;SDS_P1;SDS_P2;PMS_P1;PMS_P2;Temp;Humidity;BMP_temperature;BMP_pressure;BME280_temperature;BME280_humidity;BME280_pressure;Samples;Min_cycle;Max_cycle;Signal;HPM_P1;HPM_P2
2022/09/23 00:00:39;;;;;;;9.67;7.40;;;8.00;1.00;;;;;;5048045;28;20410;-85
2022/09/23 00:06:29;;;;;;;10.10;6.40;;;8.00;1.00;;;;;;5044149;28;20481;-85
2022/09/23 00:09:03;;;;;;;7.23;6.53;;;7.90;1.00;;;;;;5039895;28;20414;-85
2022/09/23 00:11:57;;;;;;;10.60;7.33;;;7.90;1.00;;;;;;5053083;28;20929;-85
2022/09/23 00:14:33;;;;;;;9.97;6.47;;;7.90;1.00;;;;;;5041180;28;20434;-75
2022/09/23 00:17:03;;;;;;;16.40;7.10;;;7.90;1.00;;;;;;5047343;28;20422;-75
2022/09/23 00:19:34;;;;;;;10.30;6.80;;;7.90;1.00;;;;;;5054667;28;20933;-75
2022/09/23 00:21:59;;;;;;;10.50;6.97;;;7.90;1.00;;;;;;5052800;28;20506;-75
2022/09/23 00:24:31;;;;;;;19.53;7.43;;;7.80;1.00;;;;;;5051667;28;20453;-75
2022/09/23 00:26:58;;;;;;;9.00;6.30;;;7.80;1.00;;;;;;5048766;28;20175;-75
2022/09/23 00:36:10;;;;;;;13.87;6.63;;;7.60;1.00;;;;;;5045530;28;20421;-85
2022/09/23 00:38:36;;;;;;;14.07;7.23;;;7.60;1.00;;;;;;5044705;28;20495;-85
2022/09/23 00:41:56;;;;;;;9.73;7.20;;;7.60;1.00;;;;;;5043051;28;20473;-85
2022/09/23 00:45:01;;;;;;;9.00;7.43;;;7.60;1.00;;;;;;5035266;28;20488;-85
2022/09/23 00:54:51;;;;;;;10.43;6.67;;;7.50;1.00;;;;;;5013038;28;20419;-85
2022/09/23 01:01:09;;;;;;;11.03;6.53;;;7.40;1.00;;;;;;5012644;28;20507;-85
2022/09/23 01:04:09;;;;;;;9.77;7.50;;;7.40;1.00;;;;;;5007272;28;20439;-83
2022/09/23 01:10:39;;;;;;;7.47;6.30;;;7.30;1.00;;;;;;5003562;28;20387;-84
2022/09/23 01:13:34;;;;;;;8.47;7.00;;;7.30;1.00;;;;;;5012747;28;20431;-84
2022/09/23 01:16:28;;;;;;;10.30;7.33;;;7.30;1.00;;;;;;4995996;28;20443;-75
2022/09/23 01:19:07;;;;;;;11.53;7.10;;;7.30;1.00;;;;;;5039904;28;20456;-75
2022/09/23 01:21:38;;;;;;;9.00;7.27;;;7.20;1.00;;;;;;5053282;28;20457;-75
2022/09/23 01:24:30;;;;;;;9.60;7.37;;;7.10;1.00;;;;;;5041403;28;20417;-76
2022/09/23 01:27:14;;;;;;;12.00;7.33;;;7.10;1.00;;;;;;5045350;28;20434;-75
2022/09/23 01:30:18;;;;;;;14.00;8.07;;;7.10;1.00;;;;;;5054320;28;20495;-76
2022/09/23 01:32:58;;;;;;;7.33;6.63;;;7.10;1.00;;;;;;5039280;28;20521;-76
2022/09/23 01:35:42;;;;;;;14.27;7.63;;;7.10;1.00;;;;;;5038510;28;20920;-76
2022/09/23 01:38:25;;;;;;;8.13;7.00;;;7.00;1.00;;;;;;5050503;28;20498;-75
2022/09/23 01:41:26;;;;;;;9.10;7.00;;;7.00;1.00;;;;;;5038663;28;20890;-75
2022/09/23 01:44:41;;;;;;;7.53;6.63;;;7.00;1.00;;;;;;5039586;28;20434;-76
2022/09/23 01:47:13;;;;;;;13.70;7.10;;;7.00;1.00;;;;;;5024139;28;20447;-76
2022/09/23 01:49:55;;;;;;;18.60;6.97;;;7.00;1.00;;;;;;5031550;28;20422;-75
2022/09/23 01:52:35;;;;;;;9.50;6.97;;;6.90;1.00;;;;;;5029162;28;20975;-75
2022/09/23 01:55:14;;;;;;;9.53;6.70;;;6.90;1.00;;;;;;5020313;28;20430;-75
2022/09/23 01:57:48;;;;;;;13.83;7.23;;;6.80;1.00;;;;;;5032520;28;20632;-75
2022/09/23 02:00:17;;;;;;;14.20;7.10;;;6.90;1.00;;;;;;5045019;28;20413;-75
2022/09/23 02:02:50;;;;;;;9.60;6.70;;;6.90;1.00;;;;;;5055257;28;20886;-75
2022/09/23 02:05:38;;;;;;;15.93;6.90;;;6.90;1.00;;;;;;5039944;28;20485;-75
2022/09/23 02:08:13;;;;;;;13.40;6.63;;;6.90;1.00;;;;;;5035374;28;20533;-75
2022/09/23 02:10:57;;;;;;;17.10;6.87;;;6.80;1.00;;;;;;5034146;28;20439;-76
2022/09/23 02:13:35;;;;;;;17.13;7.07;;;6.80;1.00;;;;;;5034994;28;20422;-75
2022/09/23 02:16:21;;;;;;;8.00;6.37;;;6.80;1.00;;;;;;5021170;28;20422;-85
2022/09/23 02:22:34;;;;;;;8.77;7.17;;;6.80;1.00;;;;;;5035807;28;20469;-85
2022/09/23 02:25:27;;;;;;;13.83;6.60;;;6.80;1.00;;;;;;5049726;28;20424;-85
2022/09/23 02:28:39;;;;;;;11.53;6.77;;;6.80;1.00;;;;;;5062796;28;20438;-86
2022/09/23 02:31:17;;;;;;;10.03;6.70;;;6.80;1.00;;;;;;5049303;28;20438;-75
2022/09/23 02:34:01;;;;;;;18.47;7.40;;;6.80;1.00;;;;;;5055196;28;20405;-75
2022/09/23 02:36:39;;;;;;;16.73;8.37;;;6.80;1.00;;;;;;5057130;28;20414;-76
2022/09/23 02:39:12;;;;;;;13.00;8.03;;;6.80;1.00;;;;;;5036994;28;20505;-75
2022/09/23 02:41:58;;;;;;;14.10;7.50;;;6.80;1.00;;;;;;5052995;28;20429;-75
2022/09/23 02:44:27;;;;;;;9.73;6.77;;;6.80;1.00;;;;;;5051105;28;20517;-76
2022/09/23 02:47:17;;;;;;;7.97;6.60;;;6.80;1.00;;;;;;5043074;28;20463;-76
2022/09/23 02:50:16;;;;;;;13.13;7.20;;;6.80;1.00;;;;;;5051191;28;20426;-75
2022/09/23 02:52:51;;;;;;;9.30;6.57;;;6.80;1.00;;;;;;5050121;28;20454;-76
2022/09/23 02:55:24;;;;;;;7.90;7.10;;;6.80;1.00;;;;;;5055293;28;20453;-75
2022/09/23 02:57:52;;;;;;;8.53;7.43;;;6.80;1.00;;;;;;5042469;28;20481;-75
2022/09/23 03:00:18;;;;;;;10.40;7.53;;;6.80;1.00;;;;;;5056547;28;21032;-75
2022/09/23 03:03:25;;;;;;;10.77;7.27;;;6.80;1.00;;;;;;5053353;28;20944;-76
2022/09/23 03:05:57;;;;;;;13.20;7.23;;;6.80;1.00;;;;;;5009765;28;20478;-76
2022/09/23 03:08:49;;;;;;;10.80;7.00;;;6.70;1.00;;;;;;4997667;28;20484;-75
2022/09/23 03:11:16;;;;;;;8.13;6.53;;;6.80;1.00;;;;;;4936544;29;20455;-76
2022/09/23 03:14:07;;;;;;;11.83;6.90;;;6.80;1.00;;;;;;4935281;29;20501;-75
2022/09/23 03:19:56;;;;;;;9.27;6.43;;;6.80;1.00;;;;;;4937746;29;20391;-85
2022/09/23 03:22:48;;;;;;;13.10;7.97;;;6.80;1.00;;;;;;4937315;29;20449;-86
2022/09/23 03:25:24;;;;;;;12.63;7.40;;;6.80;1.00;;;;;;4936792;29;20494;-85
2022/09/23 03:31:12;;;;;;;9.33;6.80;;;6.80;1.00;;;;;;4937433;29;20463;-85
2022/09/23 03:33:50;;;;;;;8.80;7.47;;;6.90;1.00;;;;;;4937142;29;20423;-86
2022/09/23 03:40:08;;;;;;;10.00;6.80;;;6.90;1.00;;;;;;4925166;29;20481;-86
2022/09/23 03:45:56;;;;;;;9.80;7.33;;;7.00;1.00;;;;;;4992830;28;20479;-76
2022/09/23 03:48:23;;;;;;;12.20;6.77;;;7.00;1.00;;;;;;5019360;28;20418;-76
2022/09/23 03:50:48;;;;;;;9.17;7.50;;;7.00;1.00;;;;;;5043233;28;20434;-75
2022/09/23 03:53:21;;;;;;;18.23;7.70;;;7.00;1.00;;;;;;5034371;28;20768;-76
2022/09/23 03:55:51;;;;;;;8.80;7.60;;;7.00;1.00;;;;;;5052957;28;20184;-75
2022/09/23 03:58:21;;;;;;;7.43;6.63;;;7.00;1.00;;;;;;5055401;28;20490;-76
2022/09/23 04:00:53;;;;;;;10.40;7.07;;;7.10;1.00;;;;;;5042062;28;20439;-76
2022/09/23 04:03:19;;;;;;;9.43;6.73;;;7.00;1.00;;;;;;5055233;28;20402;-75
2022/09/23 04:05:46;;;;;;;11.00;8.00;;;7.10;1.00;;;;;;5050407;28;20430;-75
2022/09/23 04:08:15;;;;;;;8.53;6.83;;;7.10;1.00;;;;;;5054361;28;20449;-75
2022/09/23 04:10:45;;;;;;;8.53;6.03;;;7.00;1.00;;;;;;5041323;28;20445;-75
2022/09/23 04:13:11;;;;;;;9.50;6.70;;;7.10;1.00;;;;;;5053513;28;20433;-76
2022/09/23 04:15:51;;;;;;;7.70;6.90;;;7.10;1.00;;;;;;5039446;28;20439;-86
2022/09/23 04:21:52;;;;;;;6.90;6.20;;;7.10;1.00;;;;;;5055387;28;20392;-86
2022/09/23 04:24:57;;;;;;;7.50;6.70;;;7.10;1.00;;;;;;5044870;28;20929;-86
2022/09/23 04:27:27;;;;;;;9.77;6.83;;;7.10;1.00;;;;;;5050889;28;20905;-87
2022/09/23 04:29:57;;;;;;;9.53;7.40;;;7.10;1.00;;;;;;5045549;28;20422;-83
2022/09/23 04:32:24;;;;;;;8.23;7.07;;;8.40;1.00;;;;;;5036835;28;20505;-84
2022/09/23 04:35:09;;;;;;;9.53;7.10;;;7.10;1.00;;;;;;5048999;28;20517;-84
2022/09/23 04:41:33;;;;;;;7.20;6.50;;;7.10;1.00;;;;;;5047410;28;20410;-84
2022/09/23 04:43:59;;;;;;;9.70;6.97;;;7.10;1.00;;;;;;5042115;28;20583;-83
2022/09/23 04:46:57;;;;;;;7.53;6.73;;;7.20;1.00;;;;;;5054696;28;20485;-84
2022/09/23 04:52:52;;;;;;;10.07;7.27;;;7.20;1.00;;;;;;5034260;28;20430;-85
2022/09/23 04:55:19;;;;;;;9.47;6.70;;;7.10;1.00;;;;;;5041106;28;20949;-86
2022/09/23 04:57:57;;;;;;;11.10;7.33;;;7.10;1.00;;;;;;5041592;28;20476;-81
2022/09/23 05:00:27;;;;;;;10.10;7.40;;;7.10;1.00;;;;;;5053494;28;20791;-79
2022/09/23 05:02:53;;;;;;;7.10;6.40;;;7.20;1.00;;;;;;5046321;28;20505;-81
2022/09/23 05:05:45;;;;;;;12.43;6.33;;;7.20;1.00;;;;;;5040632;28;20506;-80
2022/09/23 05:08:11;;;;;;;15.30;6.80;;;7.10;1.00;;;;;;5043797;28;20215;-80
2022/09/23 05:10:45;;;;;;;8.73;6.63;;;7.20;1.00;;;;;;5039115;28;20462;-84
2022/09/23 05:13:15;;;;;;;9.47;6.90;;;7.20;1.00;;;;;;5054090;28;20183;-84
2022/09/23 05:15:41;;;;;;;11.33;6.90;;;7.20;1.00;;;;;;5051282;28;20501;-79
2022/09/23 05:21:45;;;;;;;9.03;6.67;;;7.30;1.00;;;;;;5044872;28;20679;-82
2022/09/23 05:24:51;;;;;;;12.00;7.20;;;7.30;1.00;;;;;;5052276;28;20436;-85
2022/09/23 05:28:03;;;;;;;8.77;6.17;;;7.30;1.00;;;;;;5049069;28;20432;-83
2022/09/23 05:30:48;;;;;;;12.33;7.30;;;7.40;1.00;;;;;;5035555;28;20407;-84
2022/09/23 05:33:15;;;;;;;13.63;6.87;;;7.40;1.00;;;;;;5053223;28;20421;-80
2022/09/23 05:35:46;;;;;;;16.80;7.10;;;7.50;1.00;;;;;;5058913;28;20422;-80
2022/09/23 05:38:16;;;;;;;13.60;9.03;;;7.50;1.00;;;;;;5039337;28;20961;-80
2022/09/23 05:40:59;;;;;;;11.37;7.23;;;7.60;1.00;;;;;;5041490;28;20414;-78
2022/09/23 05:43:34;;;;;;;15.43;7.00;;;7.70;1.00;;;;;;5039444;28;20434;-78
2022/09/23 05:46:21;;;;;;;8.60;6.70;;;7.70;1.00;;;;;;5044088;28;20441;-78
2022/09/23 05:48:47;;;;;;;9.07;6.80;;;7.90;1.00;;;;;;5041258;28;20471;-78
2022/09/23 05:51:57;;;;;;;13.27;7.07;;;7.90;1.00;;;;;;5047987;28;20434;-78
2022/09/23 05:54:27;;;;;;;13.77;6.80;;;8.00;1.00;;;;;;5050545;28;20197;-79
2022/09/23 05:57:15;;;;;;;11.27;7.37;;;8.10;1.00;;;;;;5036945;28;20442;-79
2022/09/23 05:59:46;;;;;;;9.77;6.60;;;8.20;1.00;;;;;;5036760;28;20524;-80
2022/09/23 06:02:57;;;;;;;9.07;6.87;;;8.30;1.00;;;;;;5051716;28;20433;-86
2022/09/23 06:08:45;;;;;;;14.90;6.50;;;8.60;1.00;;;;;;5041800;28;20467;-87
2022/09/23 06:11:34;;;;;;;8.90;6.80;;;8.70;1.00;;;;;;5050331;28;20943;-87
2022/09/23 06:14:21;;;;;;;16.33;6.60;;;8.80;1.00;;;;;;5053688;28;20405;-86
2022/09/23 06:20:21;;;;;;;10.97;6.00;;;9.00;1.00;;;;;;5046439;28;20425;-82
2022/09/23 06:26:11;;;;;;;15.30;5.60;;;9.30;1.00;;;;;;5050178;28;20409;-86
2022/09/23 06:28:45;;;;;;;9.20;6.10;;;9.40;1.00;;;;;;5052556;28;20418;-86
2022/09/23 06:31:19;;;;;;;9.40;5.87;;;9.50;1.00;;;;;;5053608;28;20405;-86
2022/09/23 06:33:45;;;;;;;8.53;5.50;;;9.60;1.00;;;;;;5050794;28;20429;-79
2022/09/23 06:36:13;;;;;;;14.93;5.50;;;9.70;1.00;;;;;;5051032;28;20527;-77
2022/09/23 06:38:48;;;;;;;6.80;5.57;;;9.80;1.00;;;;;;5048997;28;20458;-80
2022/09/23 06:41:16;;;;;;;20.30;5.10;;;9.90;1.00;;;;;;5043608;28;20520;-78
2022/09/23 06:44:03;;;;;;;10.50;5.53;;;10.00;1.00;;;;;;5051827;28;20425;-78
2022/09/23 06:46:32;;;;;;;5.87;4.70;;;10.00;1.00;;;;;;5052767;28;20509;-78
2022/09/23 06:48:58;;;;;;;6.70;4.73;;;10.10;1.00;;;;;;5049200;28;21059;-77
2022/09/23 06:51:40;;;;;;;8.10;4.90;;;10.20;1.00;;;;;;5045710;28;20415;-78
2022/09/23 06:54:09;;;;;;;9.27;5.20;;;10.30;1.00;;;;;;5055324;28;20206;-78
2022/09/23 06:56:35;;;;;;;12.13;5.60;;;10.40;1.00;;;;;;5056019;28;20489;-78
2022/09/23 06:59:11;;;;;;;8.20;5.43;;;10.50;1.00;;;;;;5053290;28;20450;-78
2022/09/23 07:01:51;;;;;;;7.17;4.43;;;10.60;1.00;;;;;;5035483;28;20184;-86
2022/09/23 07:04:17;;;;;;;6.00;5.13;;;10.70;1.00;;;;;;5035804;28;20427;-79
2022/09/23 07:06:42;;;;;;;10.20;5.00;;;10.80;1.00;;;;;;5035192;28;20434;-78
2022/09/23 07:09:15;;;;;;;11.03;5.23;;;10.90;1.00;;;;;;5054263;28;20236;-77
2022/09/23 07:11:46;;;;;;;5.97;4.70;;;11.00;1.00;;;;;;5056273;28;20190;-78
2022/09/23 07:14:15;;;;;;;6.57;4.80;;;11.00;1.00;;;;;;5037152;28;20436;-78
2022/09/23 07:17:27;;;;;;;6.83;4.63;;;11.10;1.00;;;;;;5036426;28;20418;-79
2022/09/23 07:23:16;;;;;;;11.00;5.13;;;11.30;1.00;;;;;;5037162;28;20552;-87
2022/09/23 07:29:46;;;;;;;5.90;4.90;;;11.40;1.00;;;;;;5050720;28;20437;-87
2022/09/23 07:32:12;;;;;;;7.90;5.30;;;11.50;1.00;;;;;;5041197;28;20795;-79
2022/09/23 07:34:48;;;;;;;8.33;5.53;;;11.50;1.00;;;;;;5049083;28;20417;-77
2022/09/23 07:37:17;;;;;;;8.27;5.40;;;11.50;1.00;;;;;;5048091;28;21953;-77
2022/09/23 07:39:45;;;;;;;6.13;5.17;;;11.60;1.00;;;;;;5047179;28;20535;-77
2022/09/23 07:42:21;;;;;;;5.97;4.67;;;11.70;1.00;;;;;;5052900;28;20414;-77
2022/09/23 07:44:47;;;;;;;11.47;5.63;;;11.70;1.00;;;;;;5036997;28;20517;-80
2022/09/23 07:47:16;;;;;;;8.97;5.30;;;11.70;1.00;;;;;;5055770;28;20414;-79
2022/09/23 07:49:47;;;;;;;8.27;5.23;;;11.80;1.00;;;;;;5045770;28;20172;-77
2022/09/23 07:52:15;;;;;;;6.10;4.80;;;11.80;1.00;;;;;;5055380;28;20417;-77
2022/09/23 07:55:09;;;;;;;7.27;4.87;;;11.90;1.00;;;;;;5051465;28;20422;-77
2022/09/23 07:57:45;;;;;;;5.95;4.40;;;11.90;1.00;;;;;;5045993;28;20430;-83
2022/09/23 08:00:21;;;;;;;5.27;4.63;;;11.90;1.00;;;;;;5045150;28;20500;-78
2022/09/23 08:02:51;;;;;;;5.00;4.50;;;11.90;1.00;;;;;;5055074;28;20484;-78
2022/09/23 08:05:45;;;;;;;9.67;4.67;;;12.00;1.00;;;;;;5047674;28;21071;-78
2022/09/23 08:08:12;;;;;;;6.00;4.57;;;12.00;1.00;;;;;;5034954;28;20456;-78
2022/09/23 08:10:45;;;;;;;9.03;4.93;;;12.10;1.00;;;;;;5050326;28;20485;-78
2022/09/23 08:13:27;;;;;;;5.60;4.50;;;12.30;1.00;;;;;;5054727;28;20527;-78
2022/09/23 08:15:57;;;;;;;7.80;4.53;;;12.40;1.00;;;;;;5058477;28;20827;-79
2022/09/23 08:18:27;;;;;;;5.20;4.60;;;12.60;1.00;;;;;;5039865;28;20498;-83
2022/09/23 08:21:33;;;;;;;5.07;4.50;;;12.60;1.00;;;;;;5054601;28;20410;-84
2022/09/23 08:24:10;;;;;;;5.50;4.60;;;12.70;1.00;;;;;;5053575;28;20479;-84
2022/09/23 08:26:40;;;;;;;6.03;4.33;;;12.90;1.00;;;;;;5041589;28;20417;-83
2022/09/23 08:29:39;;;;;;;6.50;4.40;;;12.90;1.00;;;;;;5050862;28;20903;-83
2022/09/23 08:32:15;;;;;;;5.13;3.97;;;13.00;1.00;;;;;;5038649;28;20438;-83
2022/09/23 08:34:45;;;;;;;5.80;4.67;;;13.10;1.00;;;;;;5037511;28;20422;-84
2022/09/23 08:37:21;;;;;;;7.53;4.43;;;13.10;1.00;;;;;;5036864;28;20421;-93
2022/09/23 08:43:47;;;;;;;7.43;4.10;;;13.30;1.00;;;;;;5044582;28;20388;-83
2022/09/23 08:46:23;;;;;;;5.80;4.03;;;13.40;1.00;;;;;;5049000;28;20417;-86
2022/09/23 08:48:53;;;;;;;5.80;4.10;;;13.50;1.00;;;;;;5044846;28;20487;-76
2022/09/23 08:51:32;;;;;;;4.60;3.80;;;13.50;1.00;;;;;;5054446;28;20759;-75
2022/09/23 08:54:29;;;;;;;4.23;3.83;;;13.60;1.00;;;;;;5050722;28;20435;-76
2022/09/23 08:57:00;;;;;;;4.40;3.60;;;13.70;1.00;;;;;;5046886;28;21002;-75
2022/09/23 08:59:39;;;;;;;9.43;3.83;;;13.90;1.00;;;;;;5041832;28;20452;-75
2022/09/23 09:02:18;;;;;;;9.47;4.37;;;14.10;1.00;;;;;;5051413;28;20785;-77
2022/09/23 09:05:39;;;;;;;3.93;3.43;;;14.20;1.00;;;;;;5053872;28;20892;-82
2022/09/23 09:08:05;;;;;;;5.50;4.17;;;14.40;1.00;;;;;;5041014;28;20415;-83
2022/09/23 09:10:46;;;;;;;4.10;3.70;;;14.50;1.00;;;;;;5033459;28;20386;-82
2022/09/23 09:13:51;;;;;;;3.90;3.27;;;14.60;1.00;;;;;;5042880;28;20183;-82
2022/09/23 09:16:43;;;;;;;3.50;3.13;;;14.80;1.00;;;;;;5034498;28;20525;-82
2022/09/23 09:19:25;;;;;;;4.30;3.33;;;15.00;1.00;;;;;;5044289;28;20437;-77
2022/09/23 09:21:54;;;;;;;3.30;3.00;;;15.10;1.00;;;;;;5048911;28;20389;-77
2022/09/23 09:24:34;;;;;;;6.00;2.90;;;15.30;1.00;;;;;;5040439;28;20416;-77
2022/09/23 09:27:07;;;;;;;12.60;2.63;;;15.50;1.00;;;;;;5046685;28;20457;-77
2022/09/23 09:29:38;;;;;;;7.30;2.60;;;15.70;1.00;;;;;;5048610;28;20796;-78
2022/09/23 09:32:19;;;;;;;3.00;2.70;;;15.80;1.00;;;;;;5042682;28;21028;-77
2022/09/23 09:35:22;;;;;;;4.40;2.43;;;15.70;1.00;;;;;;5042406;28;20380;-77
2022/09/23 09:37:47;;;;;;;2.93;2.73;;;15.80;1.00;;;;;;5040298;28;20373;-77
2022/09/23 09:40:19;;;;;;;7.60;2.17;;;15.90;1.00;;;;;;5053558;28;20399;-77
2022/09/23 09:43:05;;;;;;;2.73;2.53;;;15.90;1.00;;;;;;5037151;28;20675;-77
2022/09/23 09:46:07;;;;;;;3.17;2.67;;;16.10;1.00;;;;;;5038839;28;20409;-77
2022/09/23 09:48:53;;;;;;;4.57;2.50;;;16.10;1.00;;;;;;5047262;28;20827;-77
2022/09/23 09:51:28;;;;;;;4.10;2.67;;;16.10;1.00;;;;;;5042767;28;20399;-77
2022/09/23 09:54:36;;;;;;;2.50;2.30;;;16.30;1.00;;;;;;5043993;28;20434;-76
2022/09/23 09:57:38;;;;;;;3.17;2.20;;;16.30;1.00;;;;;;5044834;28;20434;-77
2022/09/23 10:00:40;;;;;;;3.40;2.50;;;16.50;1.00;;;;;;4973532;28;20462;-77
2022/09/23 10:03:51;;;;;;;2.90;2.53;;;16.50;1.00;;;;;;4925617;29;20804;-77
2022/09/23 10:06:24;;;;;;;2.90;2.40;;;16.30;1.00;;;;;;4858802;29;20421;-81
2022/09/23 10:09:18;;;;;;;4.80;2.30;;;16.30;1.00;;;;;;4858978;29;20527;-81
2022/09/23 10:12:21;;;;;;;7.80;2.13;;;16.40;1.00;;;;;;4858589;29;20497;-81
2022/09/23 10:14:56;;;;;;;3.03;2.27;;;16.40;1.00;;;;;;4858759;29;20415;-82
2022/09/23 10:17:40;;;;;;;2.27;2.03;;;16.40;1.00;;;;;;4858561;29;20422;-82
2022/09/23 10:20:08;;;;;;;4.33;2.77;;;16.40;1.00;;;;;;4847680;29;20939;-76
2022/09/23 10:22:41;;;;;;;3.20;2.70;;;16.50;1.00;;;;;;4856084;29;20455;-76
2022/09/23 10:25:23;;;;;;;3.53;2.47;;;16.60;1.00;;;;;;4862531;29;20496;-77
2022/09/23 10:27:52;;;;;;;5.97;2.80;;;16.90;1.00;;;;;;4861840;29;20454;-76
2022/09/23 10:30:23;;;;;;;1.90;1.80;;;16.90;1.00;;;;;;4861927;29;20443;-76
2022/09/23 10:32:56;;;;;;;2.87;2.67;;;17.00;1.00;;;;;;4861510;29;20466;-76
2022/09/23 10:35:23;;;;;;;3.00;2.13;;;17.00;1.00;;;;;;4892153;29;20434;-76
2022/09/23 10:37:58;;;;;;;4.50;2.23;;;17.20;1.00;;;;;;4943354;28;20460;-77
2022/09/23 10:46:37;;;;;;;4.83;2.30;;;17.50;1.00;;;;;;5040097;28;20406;-76
2022/09/23 10:47:05;;;;;;;4.10;1.90;;;17.50;1.00;;;;;;5045821;28;20406;-76
2022/09/23 10:50:08;;;;;;;2.80;2.50;;;17.60;1.00;;;;;;5047379;28;20434;-77
2022/09/23 10:52:46;;;;;;;4.03;2.13;;;17.70;1.00;;;;;;5045493;28;20407;-76
2022/09/23 10:55:39;;;;;;;2.77;1.90;;;17.90;1.00;;;;;;5056030;28;20430;-76
2022/09/23 10:58:18;;;;;;;4.17;1.77;;;18.10;1.00;;;;;;5055524;28;20443;-76
2022/09/23 11:01:25;;;;;;;10.17;2.20;;;18.10;1.00;;;;;;5047016;28;20831;-76
2022/09/23 11:04:15;;;;;;;10.63;2.13;;;18.10;1.00;;;;;;5055533;28;20412;-76
2022/09/23 11:06:48;;;;;;;2.57;2.27;;;18.20;1.00;;;;;;5050471;28;20423;-76
2022/09/23 11:09:29;;;;;;;3.07;1.93;;;18.20;1.00;;;;;;5052453;28;20478;-76
2022/09/23 11:11:57;;;;;;;2.63;2.50;;;18.30;1.00;;;;;;5043159;28;20397;-76
2022/09/23 11:14:27;;;;;;;2.60;2.40;;;18.20;1.00;;;;;;5055563;28;20445;-76
2022/09/23 11:17:29;;;;;;;2.43;2.23;;;18.30;1.00;;;;;;5056652;28;20432;-76
2022/09/23 11:20:20;;;;;;;2.60;2.30;;;18.30;1.00;;;;;;5050301;28;20422;-81
2022/09/23 11:23:19;;;;;;;6.87;2.20;;;18.50;1.00;;;;;;5055793;28;20454;-81
2022/09/23 11:25:58;;;;;;;5.13;2.80;;;18.60;1.00;;;;;;5054447;28;20360;-80
2022/09/23 11:29:01;;;;;;;3.20;2.10;;;18.60;1.00;;;;;;5044299;28;20426;-81
2022/09/23 11:31:38;;;;;;;2.53;2.23;;;18.70;1.00;;;;;;5013936;28;20991;-81
2022/09/23 11:34:33;;;;;;;4.50;2.37;;;18.70;1.00;;;;;;5011180;28;20466;-79
2022/09/23 11:37:08;;;;;;;3.10;2.27;;;18.90;1.00;;;;;;5000265;28;20435;-79
2022/09/23 11:39:48;;;;;;;4.37;3.03;;;19.20;1.00;;;;;;4993668;28;20429;-79
2022/09/23 11:42:44;;;;;;;4.20;2.50;;;19.30;1.00;;;;;;5012054;28;20423;-79
2022/09/23 11:45:29;;;;;;;3.10;2.27;;;19.50;1.00;;;;;;5012305;28;20800;-79
2022/09/23 11:48:11;;;;;;;3.43;2.60;;;19.80;1.00;;;;;;5003295;28;20522;-79
2022/09/23 11:50:59;;;;;;;4.20;2.57;;;20.00;1.00;;;;;;5012274;28;20431;-75
2022/09/23 11:54:00;;;;;;;10.03;2.80;;;20.20;1.00;;;;;;4999493;28;20416;-76
2022/09/23 11:56:52;;;;;;;5.17;2.77;;;20.60;1.00;;;;;;4943808;29;21107;-76
2022/09/23 11:59:36;;;;;;;2.50;2.30;;;20.70;1.00;;;;;;4949299;28;20533;-76
2022/09/23 12:02:29;;;;;;;4.83;2.43;;;20.70;1.00;;;;;;4943382;28;20426;-76
2022/09/23 12:05:04;;;;;;;2.73;2.40;;;20.70;1.00;;;;;;4954654;28;20477;-76
2022/09/23 12:08:08;;;;;;;2.43;2.23;;;20.90;1.00;;;;;;4957465;28;20525;-76
2022/09/23 12:11:15;;;;;;;2.57;1.97;;;21.00;1.00;;;;;;4990038;28;20430;-76
2022/09/23 12:14:01;;;;;;;2.53;2.33;;;21.20;1.00;;;;;;4937183;29;20447;-75
2022/09/23 12:16:47;;;;;;;2.10;1.70;;;21.00;1.00;;;;;;4945159;28;20498;-76
2022/09/23 12:19:46;;;;;;;2.67;2.47;;;21.10;1.00;;;;;;4951104;29;20472;-75
2022/09/23 12:22:17;;;;;;;3.03;2.50;;;21.00;1.00;;;;;;4951855;28;20439;-76
2022/09/23 12:24:52;;;;;;;8.33;2.80;;;20.70;1.00;;;;;;4940333;29;20903;-76
2022/09/23 12:27:36;;;;;;;2.97;2.03;;;20.70;1.00;;;;;;4945699;29;20445;-76
2022/09/23 12:30:26;;;;;;;4.10;2.50;;;20.80;1.00;;;;;;4936830;29;20881;-77
2022/09/23 12:33:05;;;;;;;2.50;2.40;;;20.70;1.00;;;;;;4970814;28;20955;-77
2022/09/23 12:42:18;;;;;;;2.70;2.50;;;21.00;1.00;;;;;;4976911;28;20409;-81
2022/09/23 12:44:47;;;;;;;2.40;2.20;;;20.90;1.00;;;;;;4985424;28;20459;-84
2022/09/23 12:51:03;;;;;;;3.47;2.80;;;21.00;1.00;;;;;;5017937;28;20971;-84
2022/09/23 12:54:17;;;;;;;2.23;2.13;;;21.20;1.00;;;;;;5052870;28;20430;-84
2022/09/23 12:57:13;;;;;;;1.83;1.73;;;21.30;1.00;;;;;;4988949;28;20482;-85
2022/09/23 13:00:03;;;;;;;6.40;2.43;;;21.50;1.00;;;;;;4973957;28;20471;-85
2022/09/23 13:08:46;;;;;;;3.50;2.57;;;21.30;1.00;;;;;;4992172;28;20444;-77
2022/09/23 13:11:20;;;;;;;2.00;1.90;;;21.30;1.00;;;;;;4988029;28;20484;-75
2022/09/23 13:13:48;;;;;;;2.50;2.30;;;21.30;1.00;;;;;;4989913;28;20445;-75
2022/09/23 13:16:57;;;;;;;2.10;2.00;;;21.40;1.00;;;;;;4990937;28;20531;-75
2022/09/23 13:19:25;;;;;;;10.00;2.37;;;21.30;1.00;;;;;;4988246;28;20480;-75
2022/09/23 13:21:56;;;;;;;2.27;2.07;;;21.50;1.00;;;;;;4991625;28;20425;-75
2022/09/23 13:24:35;;;;;;;2.50;2.30;;;21.50;1.00;;;;;;4991814;28;20418;-75
2022/09/23 13:27:01;;;;;;;2.97;2.00;;;21.30;1.00;;;;;;5000246;28;22167;-75
2022/09/23 13:29:56;;;;;;;5.00;2.40;;;21.20;1.00;;;;;;4999818;28;20442;-75
2022/09/23 13:32:30;;;;;;;4.23;2.17;;;21.20;1.00;;;;;;5001310;28;20547;-75
2022/09/23 13:35:00;;;;;;;2.10;1.80;;;21.00;1.00;;;;;;5038163;28;20419;-75
2022/09/23 13:37:40;;;;;;;2.60;2.30;;;20.90;1.00;;;;;;5050303;28;20755;-82
2022/09/23 13:40:27;;;;;;;4.53;2.00;;;21.10;1.00;;;;;;5041142;28;20502;-82
2022/09/23 13:42:56;;;;;;;2.67;1.87;;;21.20;1.00;;;;;;5046412;28;20435;-82
2022/09/23 13:45:59;;;;;;;5.30;2.10;;;21.40;1.00;;;;;;5037927;28;20414;-82
2022/09/23 13:48:27;;;;;;;2.87;2.67;;;21.60;1.00;;;;;;5048052;28;20423;-82
2022/09/23 13:51:03;;;;;;;2.60;2.37;;;21.60;1.00;;;;;;5039545;28;20443;-78
2022/09/23 13:53:40;;;;;;;4.80;1.93;;;21.60;1.00;;;;;;5049707;28;20409;-78
2022/09/23 13:56:17;;;;;;;13.93;2.70;;;21.60;1.00;;;;;;5041877;28;20418;-79
2022/09/23 13:59:26;;;;;;;3.73;2.23;;;21.50;1.00;;;;;;5050584;28;20466;-78
2022/09/23 14:02:24;;;;;;;2.60;2.40;;;21.40;1.00;;;;;;4998040;28;20436;-79
2022/09/23 14:04:57;;;;;;;2.60;2.20;;;21.40;1.00;;;;;;4981484;28;20424;-79
2022/09/23 14:07:31;;;;;;;2.43;2.23;;;21.40;1.00;;;;;;4995881;28;20392;-78
2022/09/23 14:09:58;;;;;;;8.10;2.20;;;21.40;1.00;;;;;;4986306;28;20433;-79
2022/09/23 14:12:28;;;;;;;4.40;2.20;;;21.30;1.00;;;;;;4993673;28;20461;-78
2022/09/23 14:15:01;;;;;;;2.40;2.20;;;21.40;1.00;;;;;;4995204;28;20494;-78
2022/09/23 14:17:29;;;;;;;2.53;2.23;;;21.10;1.00;;;;;;4987383;28;20504;-79
2022/09/23 14:20:01;;;;;;;3.80;2.20;;;20.90;1.00;;;;;;4979238;28;20472;-79
2022/09/23 14:22:29;;;;;;;3.93;2.10;;;20.80;1.00;;;;;;4994615;28;20422;-83
2022/09/23 14:24:58;;;;;;;5.07;2.47;;;20.50;1.00;;;;;;4978963;28;20417;-81
2022/09/23 14:27:32;;;;;;;3.00;2.23;;;20.40;1.00;;;;;;4995094;28;20936;-81
2022/09/23 14:30:01;;;;;;;5.30;2.27;;;20.30;1.00;;;;;;4990312;28;20466;-81
2022/09/23 14:32:29;;;;;;;2.40;1.83;;;20.40;1.00;;;;;;4995226;28;20425;-80
2022/09/23 14:35:05;;;;;;;4.30;1.90;;;20.60;1.00;;;;;;4989548;28;20442;-80
2022/09/23 14:41:17;;;;;;;2.27;1.97;;;20.70;1.00;;;;;;5051310;28;20405;-86
2022/09/23 14:44:00;;;;;;;3.23;2.17;;;20.90;1.00;;;;;;5051654;28;20439;-87
2022/09/23 14:46:34;;;;;;;5.23;2.33;;;21.20;1.00;;;;;;5046652;28;20435;-88
2022/09/23 14:50:35;;;;;;;2.10;2.00;;;21.20;1.00;;;;;;5054476;28;20442;-87
2022/09/23 14:52:31;;;;;;;4.07;2.30;;;21.10;1.00;;;;;;5039764;28;20416;-81
2022/09/23 14:54:57;;;;;;;3.80;1.93;;;21.00;1.00;;;;;;5052506;28;20431;-80
2022/09/23 14:57:28;;;;;;;4.07;2.10;;;21.10;1.00;;;;;;5051621;28;20441;-80
2022/09/23 15:00:13;;;;;;;2.90;2.20;;;21.20;1.00;;;;;;5054864;28;20806;-80
2022/09/23 15:03:19;;;;;;;2.10;1.90;;;21.20;1.00;;;;;;5052202;28;20868;-80
2022/09/23 15:05:48;;;;;;;1.90;1.80;;;21.20;1.00;;;;;;4975039;28;20478;-80
2022/09/23 15:08:28;;;;;;;1.97;1.60;;;21.30;1.00;;;;;;4962571;28;20531;-87
2022/09/23 15:11:02;;;;;;;9.80;1.93;;;21.30;1.00;;;;;;4959220;28;20439;-87
2022/09/23 15:13:32;;;;;;;3.60;2.00;;;21.40;1.00;;;;;;4964951;28;20477;-89
2022/09/23 15:16:00;;;;;;;1.80;1.70;;;21.50;1.00;;;;;;4962552;28;20439;-82
2022/09/23 15:18:34;;;;;;;6.63;2.20;;;21.50;1.00;;;;;;4966570;28;20467;-86
2022/09/23 15:21:39;;;;;;;4.57;1.93;;;21.60;1.00;;;;;;4975431;28;20424;-81
2022/09/23 15:24:38;;;;;;;2.37;1.93;;;21.70;1.00;;;;;;4975323;28;20481;-80
2022/09/23 15:27:52;;;;;;;2.00;1.90;;;21.80;1.00;;;;;;4944584;28;20463;-86
2022/09/23 15:30:40;;;;;;;1.70;1.60;;;21.90;1.00;;;;;;4968202;28;20468;-80
2022/09/23 15:33:15;;;;;;;3.33;2.30;;;22.20;1.00;;;;;;4974687;28;20433;-83
2022/09/23 15:35:47;;;;;;;4.40;2.03;;;22.30;1.00;;;;;;4974416;28;20592;-82
2022/09/23 15:38:16;;;;;;;5.73;2.10;;;22.40;1.00;;;;;;4961879;28;20416;-82
2022/09/23 15:40:47;;;;;;;5.90;2.20;;;22.30;1.00;;;;;;4990814;28;20948;-83
2022/09/23 15:43:28;;;;;;;3.20;1.70;;;22.10;1.00;;;;;;5050536;28;20430;-87
2022/09/23 15:46:04;;;;;;;3.70;1.90;;;22.00;1.00;;;;;;5041729;28;20771;-79